createdAt,value
2023-10-06T00:04:00.947Z,8.41
2023-10-06T00:08:06.166Z,8.39
2023-10-06T00:12:14.425Z,8.31
2023-10-06T00:16:17.802Z,8.24
2023-10-06T00:20:28.068Z,8.22
2023-10-06T00:24:32.572Z,8.22
2023-10-06T00:28:37.674Z,8.22
2023-10-06T00:32:43.405Z,8.12
2023-10-06T00:36:52.740Z,8.08
2023-10-06T00:40:56.295Z,8.08
2023-10-06T00:45:00.361Z,8.02
2023-10-06T00:49:05.817Z,7.96
2023-10-06T00:53:11.156Z,7.92
2023-10-06T00:57:17.341Z,7.87
2023-10-06T01:01:22.536Z,7.88
2023-10-06T01:05:26.876Z,7.76
2023-10-06T01:09:32.426Z,7.69
2023-10-06T01:13:35.324Z,7.67
2023-10-06T01:17:39.457Z,7.63
2023-10-06T01:21:44.493Z,7.58
2023-10-06T01:25:50.484Z,7.53
2023-10-06T01:30:10.095Z,7.52
2023-10-06T01:34:13.754Z,7.51
2023-10-06T01:38:23.520Z,7.42
2023-10-06T01:42:28.529Z,7.37
2023-10-06T01:46:31.195Z,7.30
2023-10-06T01:50:37.336Z,7.29
2023-10-06T01:54:39.997Z,7.30
2023-10-06T01:58:44.091Z,7.28
2023-10-06T02:02:51.766Z,7.22
2023-10-06T02:06:54.567Z,7.21
2023-10-06T02:10:57.327Z,7.15
2023-10-06T02:15:01.884Z,7.09
2023-10-06T02:19:10.200Z,7.07
2023-10-06T02:23:14.846Z,7.00
2023-10-06T02:27:18.196Z,6.93
2023-10-06T02:31:29.170Z,6.87
2023-10-06T02:35:31.943Z,6.79
2023-10-06T02:39:35.352Z,6.78
2023-10-06T02:43:41.798Z,6.79
2023-10-06T02:47:46.125Z,6.73
2023-10-06T02:51:51.861Z,6.70
2023-10-06T02:55:56.947Z,6.70
2023-10-06T03:00:20.074Z,6.68
2023-10-06T03:04:27.112Z,6.69
2023-10-06T03:08:31.291Z,6.63
2023-10-06T03:12:34.227Z,6.61
2023-10-06T03:16:40.613Z,6.62
2023-10-06T03:20:48.208Z,6.60
2023-10-06T03:24:59.119Z,6.53
2023-10-06T03:29:04.502Z,6.51
2023-10-06T03:33:12.885Z,7.04
2023-10-06T03:37:26.529Z,7.33
2023-10-06T03:41:32.634Z,7.76
2023-10-06T03:45:36.129Z,7.87
2023-10-06T03:49:40.963Z,7.98
2023-10-06T03:53:48.423Z,7.73
2023-10-06T03:57:51.085Z,7.41
2023-10-06T04:01:53.938Z,7.21
2023-10-06T04:05:56.763Z,6.82
2023-10-06T04:10:04.649Z,6.65
2023-10-06T04:14:07.632Z,6.54
2023-10-06T04:18:11.646Z,6.34
2023-10-06T04:22:14.330Z,6.19
2023-10-06T04:26:19.300Z,6.05
2023-10-06T04:30:22.540Z,5.98
2023-10-06T04:34:34.928Z,6.05
2023-10-06T04:38:39.929Z,6.15
2023-10-06T04:42:44.028Z,6.01
2023-10-06T04:46:46.730Z,5.97
2023-10-06T04:50:51.636Z,5.84
2023-10-06T04:54:54.453Z,5.81
2023-10-06T04:58:58.599Z,5.98
2023-10-06T05:03:05.484Z,6.16
2023-10-06T05:07:08.387Z,6.32
2023-10-06T05:11:12.750Z,6.13
2023-10-06T05:15:24.845Z,6.25
2023-10-06T05:19:28.304Z,6.31
2023-10-06T05:23:32.227Z,6.34
2023-10-06T05:27:35.945Z,6.29
2023-10-06T05:31:40.140Z,6.21
2023-10-06T05:35:43.897Z,6.20
2023-10-06T05:39:47.895Z,6.16
2023-10-06T05:43:51.044Z,6.16
2023-10-06T05:47:56.215Z,6.21
2023-10-06T05:51:59.315Z,6.24
2023-10-06T05:56:03.830Z,6.30
2023-10-06T06:00:09.354Z,6.37
2023-10-06T06:04:13.388Z,6.42
2023-10-06T06:08:16.109Z,6.20
2023-10-06T06:12:22.752Z,6.16
2023-10-06T06:16:25.844Z,6.04
2023-10-06T06:20:30.593Z,6.05
2023-10-06T06:24:34.154Z,6.11
2023-10-06T06:28:37.818Z,6.27
2023-10-06T06:32:40.668Z,6.38
2023-10-06T06:36:46.327Z,6.40
2023-10-06T06:40:49.298Z,6.49
2023-10-06T06:44:52.667Z,6.45
2023-10-06T06:48:55.707Z,6.49
2023-10-06T06:52:59.758Z,6.67
2023-10-06T06:57:03.895Z,6.76
2023-10-06T07:01:08.584Z,6.83
2023-10-06T07:05:12.824Z,6.77
2023-10-06T07:09:18.966Z,6.81
2023-10-06T07:13:23.409Z,6.96
2023-10-06T07:17:26.259Z,7.03
2023-10-06T07:21:29.490Z,7.11
2023-10-06T07:25:33.553Z,7.22
2023-10-06T07:29:36.222Z,7.31
2023-10-06T07:33:39.654Z,7.55
2023-10-06T07:37:44.285Z,7.68
2023-10-06T07:41:48.856Z,7.83
2023-10-06T07:45:53.211Z,8.25
2023-10-06T07:49:57.510Z,8.62
2023-10-06T07:54:00.416Z,8.84
2023-10-06T07:58:06.579Z,9.10
2023-10-06T08:02:10.089Z,9.30
2023-10-06T08:06:14.947Z,9.65
2023-10-06T08:10:19.721Z,10.06
2023-10-06T08:14:26.057Z,10.33
2023-10-06T08:18:30.825Z,10.67
2023-10-06T08:22:35.104Z,10.88
2023-10-06T08:26:38.266Z,11.03
2023-10-06T08:30:42.333Z,11.36
2023-10-06T08:34:47.289Z,11.65
2023-10-06T08:38:49.978Z,11.81
2023-10-06T08:42:54.806Z,11.99
2023-10-06T08:47:06.529Z,12.35
2023-10-06T08:51:15.999Z,12.65
2023-10-06T08:55:19.178Z,12.99
2023-10-06T08:59:21.879Z,13.08
2023-10-06T09:03:28.507Z,13.09
2023-10-06T09:07:32.860Z,13.13
2023-10-06T09:11:41.988Z,13.31
2023-10-06T09:15:46.089Z,13.62
2023-10-06T09:19:50.234Z,13.92
2023-10-06T09:23:57.388Z,14.00
2023-10-06T09:28:05.107Z,14.32
2023-10-06T09:32:21.737Z,14.49
2023-10-06T09:36:43.758Z,14.57
2023-10-06T09:40:48.641Z,14.62
2023-10-06T09:45:08.249Z,14.81
2023-10-06T09:49:17.181Z,14.94
2023-10-06T09:53:22.815Z,15.15
2023-10-06T09:57:26.835Z,15.31
2023-10-06T10:01:32.831Z,15.25
2023-10-06T10:05:39.238Z,15.55
2023-10-06T10:09:44.784Z,15.65
2023-10-06T10:14:07.711Z,15.77
2023-10-06T10:18:19.543Z,16.02
2023-10-06T10:22:22.534Z,16.25
2023-10-06T10:26:29.551Z,16.43
2023-10-06T10:30:51.723Z,16.89
2023-10-06T10:35:13.985Z,17.24
2023-10-06T10:39:20.886Z,17.22
2023-10-06T10:43:24.911Z,17.09
2023-10-06T10:47:27.871Z,17.38
2023-10-06T10:51:34.385Z,17.55
2023-10-06T10:55:38.556Z,17.72
2023-10-06T11:00:15.187Z,17.90
2023-10-06T11:04:26.403Z,18.20
2023-10-06T11:08:40.544Z,18.58
2023-10-06T11:12:43.241Z,18.77
2023-10-06T11:16:48.249Z,18.82
2023-10-06T11:20:51.159Z,18.94
2023-10-06T11:24:58.473Z,18.81
2023-10-06T11:29:01.882Z,19.13
2023-10-06T11:33:07.320Z,19.22
2023-10-06T11:37:10.186Z,19.29
2023-10-06T11:41:12.870Z,19.45
2023-10-06T11:45:26.561Z,19.63
2023-10-06T11:49:30.624Z,19.81
2023-10-06T11:53:34.114Z,20.23
2023-10-06T11:57:46.056Z,20.50
2023-10-06T12:01:48.734Z,20.61
2023-10-06T12:05:57.531Z,20.48
2023-10-06T12:10:04.698Z,20.14
2023-10-06T12:14:07.579Z,19.48
2023-10-06T12:18:11.614Z,19.03
2023-10-06T12:22:17.238Z,18.55
2023-10-06T12:26:23.746Z,18.68
2023-10-06T12:30:26.700Z,18.58
2023-10-06T12:34:29.698Z,18.82
2023-10-06T12:38:33.766Z,19.14
2023-10-06T12:42:36.443Z,19.46
2023-10-06T12:46:39.468Z,19.90
2023-10-06T12:50:43.527Z,20.65
2023-10-06T12:54:49.512Z,21.10
2023-10-06T12:58:52.193Z,21.16
2023-10-06T13:02:55.119Z,19.86
2023-10-06T13:07:00.021Z,19.75
2023-10-06T13:11:05.516Z,19.65
2023-10-06T13:15:11.012Z,19.66
2023-10-06T13:19:13.710Z,20.16
2023-10-06T13:23:16.792Z,20.10
2023-10-06T13:27:20.927Z,20.09
2023-10-06T13:31:23.643Z,19.82
2023-10-06T13:35:27.014Z,20.29
2023-10-06T13:39:29.717Z,20.36
2023-10-06T13:43:34.037Z,19.54
2023-10-06T13:47:39.206Z,19.26
2023-10-06T13:51:42.911Z,19.80
2023-10-06T13:55:46.714Z,19.86
2023-10-06T13:59:50.934Z,19.80
2023-10-06T14:03:53.728Z,19.86
2023-10-06T14:07:56.468Z,20.01
2023-10-06T14:12:01.382Z,20.66
2023-10-06T14:16:11.203Z,20.88
2023-10-06T14:20:24.810Z,20.68
2023-10-06T14:24:28.261Z,19.73
2023-10-06T14:28:31.104Z,19.90
2023-10-06T14:32:44.004Z,20.37
2023-10-06T14:36:47.738Z,19.44
2023-10-06T14:41:27.014Z,19.36
2023-10-06T14:45:47.000Z,19.97
2023-10-06T14:55:19.172Z,20.24
2023-10-06T14:59:22.517Z,20.15
2023-10-06T15:03:25.240Z,20.22
2023-10-06T15:07:28.281Z,19.92
2023-10-06T15:11:32.417Z,19.77
2023-10-06T15:15:35.157Z,19.86
2023-10-06T15:19:38.044Z,19.35
2023-10-06T15:23:41.144Z,19.44
2023-10-06T15:27:45.191Z,19.73
2023-10-06T15:31:49.415Z,19.84
2023-10-06T15:35:53.414Z,19.56
2023-10-06T15:39:56.083Z,19.24
2023-10-06T15:44:02.888Z,19.13
2023-10-06T15:48:10.281Z,19.07
2023-10-06T15:52:12.984Z,18.99
2023-10-06T15:56:17.606Z,19.07
2023-10-06T16:00:24.074Z,19.26
2023-10-06T16:04:28.118Z,19.58
2023-10-06T16:08:30.806Z,19.66
2023-10-06T16:12:33.541Z,19.31
2023-10-06T16:16:37.661Z,18.76
2023-10-06T16:20:41.697Z,18.43
2023-10-06T16:24:44.446Z,18.19
2023-10-06T16:28:47.132Z,17.97
2023-10-06T16:32:51.353Z,17.73
2023-10-06T16:36:54.130Z,17.49
2023-10-06T16:41:01.200Z,17.26
2023-10-06T16:45:05.614Z,17.03
2023-10-06T16:49:10.035Z,16.73
2023-10-06T16:53:13.176Z,16.51
2023-10-06T16:57:15.845Z,16.25
2023-10-06T17:01:18.652Z,16.07
2023-10-06T17:05:23.256Z,15.92
2023-10-06T17:09:32.147Z,15.69
2023-10-06T17:13:34.831Z,15.36
2023-10-06T17:17:39.183Z,15.17
2023-10-06T17:21:45.189Z,15.11
2023-10-06T17:25:49.237Z,14.97
2023-10-06T17:29:56.665Z,14.76
2023-10-06T17:33:59.986Z,14.49
2023-10-06T17:38:04.269Z,14.31
2023-10-06T17:42:08.376Z,14.21
2023-10-06T17:46:14.714Z,14.05
2023-10-06T17:50:18.555Z,13.98
2023-10-06T17:54:22.592Z,13.91
2023-10-06T17:58:25.372Z,13.76
2023-10-06T18:02:28.214Z,13.71
2023-10-06T18:06:31.726Z,13.56
2023-10-06T18:10:35.871Z,13.45
2023-10-06T18:14:39.274Z,13.37
2023-10-06T18:18:42.360Z,13.28
2023-10-06T18:22:45.292Z,13.15
2023-10-06T18:26:50.756Z,13.02
2023-10-06T18:30:54.312Z,12.91
2023-10-06T18:34:57.082Z,12.73
2023-10-06T18:38:59.784Z,12.61
2023-10-06T18:43:04.100Z,12.52
2023-10-06T18:47:06.831Z,12.39
2023-10-06T18:51:09.612Z,12.40
2023-10-06T18:55:13.931Z,12.42
2023-10-06T18:59:18.004Z,12.25
2023-10-06T19:03:23.675Z,12.12
2023-10-06T19:07:28.690Z,12.04
2023-10-06T19:11:31.418Z,11.96
2023-10-06T19:15:40.818Z,11.88
2023-10-06T19:19:43.582Z,11.76
2023-10-06T19:23:47.054Z,11.77
2023-10-06T19:27:51.928Z,11.70
2023-10-06T19:31:56.106Z,11.62
2023-10-06T19:35:59.128Z,11.55
2023-10-06T19:40:02.584Z,11.48
2023-10-06T19:44:05.672Z,11.38
2023-10-06T19:48:09.914Z,11.37
2023-10-06T19:52:12.816Z,11.36
2023-10-06T19:56:15.676Z,11.31
2023-10-06T20:00:27.112Z,11.32
2023-10-06T20:04:31.409Z,11.23
2023-10-06T20:08:34.511Z,11.14
2023-10-06T20:12:37.245Z,11.13
2023-10-06T20:16:40.318Z,11.06
2023-10-06T20:20:44.692Z,11.00
2023-10-06T20:24:48.378Z,10.95
2023-10-06T20:28:51.107Z,10.92
2023-10-06T20:32:55.707Z,10.88
2023-10-06T20:36:59.941Z,10.85
2023-10-06T20:41:03.784Z,10.81
2023-10-06T20:45:07.274Z,10.69
2023-10-06T20:49:10.334Z,10.62
2023-10-06T20:53:14.416Z,10.57
2023-10-06T20:57:17.114Z,10.52
2023-10-06T21:01:21.473Z,10.46
2023-10-06T21:05:25.036Z,10.40
2023-10-06T21:09:29.142Z,10.39
2023-10-06T21:13:32.812Z,10.41
2023-10-06T21:17:35.676Z,10.34
2023-10-06T21:21:38.460Z,10.26
2023-10-06T21:25:45.372Z,10.26
2023-10-06T21:29:48.452Z,10.24
2023-10-06T21:33:51.145Z,10.13
2023-10-06T21:37:53.907Z,10.02
2023-10-06T21:41:58.046Z,9.98
2023-10-06T21:46:04.725Z,9.97
2023-10-06T21:50:10.283Z,9.91
2023-10-06T21:54:13.153Z,9.86
2023-10-06T21:58:18.145Z,9.82
2023-10-06T22:02:22.480Z,9.73
2023-10-06T22:06:25.375Z,9.67
2023-10-06T22:10:28.786Z,9.55
2023-10-06T22:14:36.400Z,9.52
2023-10-06T22:18:39.269Z,9.48
2023-10-06T22:22:42.321Z,9.46
2023-10-06T22:26:46.060Z,9.48
2023-10-06T22:30:50.261Z,9.43
2023-10-06T22:34:53.118Z,9.39
2023-10-06T22:38:56.232Z,9.35
2023-10-06T22:42:58.914Z,9.25
2023-10-06T22:47:03.004Z,9.22
2023-10-06T22:51:05.665Z,9.21
2023-10-06T22:55:09.914Z,9.20
2023-10-06T22:59:12.668Z,9.09
2023-10-06T23:03:16.781Z,9.04
2023-10-06T23:07:19.924Z,8.98
2023-10-06T23:11:22.713Z,8.97
2023-10-06T23:15:32.719Z,8.89
2023-10-06T23:19:36.870Z,8.89
2023-10-06T23:23:39.602Z,8.96
2023-10-06T23:27:42.775Z,8.88
2023-10-06T23:31:45.568Z,8.79
2023-10-06T23:35:49.930Z,8.80
2023-10-06T23:39:52.680Z,8.82
2023-10-06T23:43:55.486Z,8.83
2023-10-06T23:47:58.806Z,8.85
2023-10-06T23:52:02.878Z,8.77
2023-10-06T23:56:20.630Z,8.73
